Time;durP1;ratioP1;P1;durP2;ratioP2;P2;SDS_P1;SDS_P2;PMS_P1;PMS_P2;Temp;Humidity;BMP_temperature;BMP_pressure;BME280_temperature;BME280_humidity;BME280_pressure;Samples;Min_cycle;Max_cycle;Signal;HPM_P1;HPM_P2
2022/04/28 00:00:42;;;;;;;9.93;7.00;;;;;;;13.89;75.95;101613.02;1765464;80;27493;-62
2022/04/28 00:03:10;;;;;;;8.28;6.58;;;;;;;13.95;75.99;101610.25;1765727;81;25748;-62
2022/04/28 00:05:39;;;;;;;8.08;6.55;;;;;;;13.99;76.16;101611.67;1765697;81;36144;-62
2022/04/28 00:08:08;;;;;;;10.48;6.87;;;;;;;14.03;75.95;101617.19;1765645;79;25942;-62
2022/04/28 00:10:36;;;;;;;12.25;7.75;;;;;;;14.06;75.81;101608.29;1765858;79;25454;-62
2022/04/28 00:13:05;;;;;;;8.83;7.45;;;;;;;14.09;75.70;101613.91;1765819;79;27523;-62
2022/04/28 00:15:32;;;;;;;10.08;7.72;;;;;;;14.08;75.61;101617.13;1765575;80;25739;-62
2022/04/28 00:17:59;;;;;;;13.20;7.97;;;;;;;14.09;75.61;101608.50;1765776;81;26352;-62
2022/04/28 00:20:28;;;;;;;12.53;8.38;;;;;;;14.09;75.73;101608.50;1758125;80;25968;-62
2022/04/28 00:22:55;;;;;;;9.50;7.75;;;;;;;14.13;75.86;101606.37;1758002;80;25735;-62
2022/04/28 00:25:23;;;;;;;9.45;7.28;;;;;;;14.14;75.77;101605.38;1757718;81;27473;-62
2022/04/28 00:27:53;;;;;;;9.23;7.33;;;;;;;14.14;75.67;101604.03;1766612;80;25482;-62
2022/04/28 00:30:21;;;;;;;9.93;6.75;;;;;;;14.13;75.60;101599.61;1784032;80;25738;-62
2022/04/28 00:32:48;;;;;;;8.28;5.55;;;;;;;14.15;75.57;101591.73;1785771;79;25889;-62
2022/04/28 00:35:15;;;;;;;9.53;5.42;;;;;;;14.15;75.34;101597.62;1816852;79;25957;-61
2022/04/28 00:37:43;;;;;;;8.35;5.45;;;;;;;14.13;75.70;101588.78;1817232;78;27644;-62
2022/04/28 00:40:12;;;;;;;9.35;5.55;;;;;;;14.06;75.07;101592.06;1816704;79;25774;-62
2022/04/28 00:42:39;;;;;;;9.30;5.85;;;;;;;14.01;75.83;101579.45;1817147;78;25658;-62
2022/04/28 00:45:07;;;;;;;10.28;5.92;;;;;;;13.87;75.35;101582.53;1816894;79;25905;-62
2022/04/28 00:50:38;;;;;;;9.88;6.25;;;;;;;13.74;75.62;101588.19;1816785;78;27621;-62
2022/04/28 00:53:12;;;;;;;7.70;5.70;;;;;;;13.72;76.50;101586.98;1817229;78;25715;-62
2022/04/28 00:55:42;;;;;;;10.72;6.28;;;;;;;13.68;76.62;101583.34;1816830;78;25717;-62
2022/04/28 00:58:10;;;;;;;9.33;6.17;;;;;;;13.66;76.46;101581.27;1817570;78;26578;-62
2022/04/28 01:00:40;;;;;;;9.28;5.70;;;;;;;13.68;76.41;101580.64;1817115;78;25838;-62
2022/04/28 01:03:07;;;;;;;9.03;5.97;;;;;;;13.65;76.55;101575.02;1817317;78;28433;-62
2022/04/28 01:05:34;;;;;;;9.33;5.70;;;;;;;13.59;76.33;101576.89;1817007;78;25621;-61
2022/04/28 01:08:02;;;;;;;8.25;5.67;;;;;;;13.59;76.62;101570.13;1817223;78;25796;-61
2022/04/28 01:10:28;;;;;;;9.50;6.35;;;;;;;13.57;76.63;101563.52;1817095;78;25742;-62
2022/04/28 01:12:57;;;;;;;8.73;5.90;;;;;;;13.55;76.37;101560.09;1817115;79;25851;-61
2022/04/28 01:15:24;;;;;;;13.83;5.35;;;;;;;13.46;76.50;101561.78;1817077;78;27448;-62
2022/04/28 01:17:51;;;;;;;9.10;5.97;;;;;;;13.44;76.97;101556.16;1816862;79;25461;-62
2022/04/28 01:20:18;;;;;;;8.88;5.20;;;;;;;13.42;77.39;101544.61;1814724;79;25654;-61
2022/04/28 01:22:45;;;;;;;9.18;6.12;;;;;;;13.29;77.79;101547.52;1813879;78;25910;-61
2022/04/28 01:25:13;;;;;;;7.15;5.67;;;;;;;13.16;78.33;101545.04;1812611;79;26280;-61
2022/04/28 01:27:40;;;;;;;10.43;5.80;;;;;;;13.10;78.10;101553.66;1815229;78;27628;-61
2022/04/28 01:30:15;;;;;;;10.53;6.25;;;;;;;13.07;78.40;101549.89;1818970;78;25686;-61
2022/04/28 01:32:44;;;;;;;11.53;6.97;;;;;;;13.03;78.11;101550.66;1808676;78;25854;-61
2022/04/28 01:35:12;;;;;;;6.70;5.22;;;;;;;13.03;78.11;101545.25;1802962;78;25970;-62
2022/04/28 01:37:40;;;;;;;10.53;6.37;;;;;;;13.07;78.47;101543.98;1803344;78;25774;-62
2022/04/28 01:40:13;;;;;;;8.13;6.03;;;;;;;13.07;78.48;101549.89;1802490;79;27463;-61
2022/04/28 01:42:42;;;;;;;7.80;5.90;;;;;;;13.03;78.21;101541.20;1803199;79;26105;-61
2022/04/28 01:45:11;;;;;;;11.95;6.17;;;;;;;13.01;77.83;101528.31;1803076;78;25672;-61
2022/04/28 01:47:40;;;;;;;11.68;6.97;;;;;;;13.04;78.09;101528.53;1800287;79;25786;-61
2022/04/28 01:50:15;;;;;;;9.38;5.80;;;;;;;13.06;77.96;101523.86;1801443;78;25743;-61
2022/04/28 01:55:37;;;;;;;7.28;5.28;;;;;;;13.05;78.24;101507.30;1801613;78;25765;-61
2022/04/28 01:58:17;;;;;;;8.33;5.83;;;;;;;12.96;77.63;101499.48;1800066;78;25696;-61
2022/04/28 02:00:51;;;;;;;10.58;5.83;;;;;;;12.88;77.47;101496.12;1798705;79;26522;-61
2022/04/28 02:03:18;;;;;;;7.72;5.12;;;;;;;12.82;77.96;101500.69;1803032;78;26059;-61
2022/04/28 02:05:46;;;;;;;13.55;5.87;;;;;;;12.76;77.95;101499.88;1802942;79;27482;-62
2022/04/28 02:08:12;;;;;;;7.55;5.65;;;;;;;12.74;77.95;101493.75;1800784;78;26087;-61
2022/04/28 02:10:39;;;;;;;11.18;5.83;;;;;;;12.76;78.34;101497.17;1777960;80;25837;-61
2022/04/28 02:13:08;;;;;;;10.05;5.72;;;;;;;12.74;78.05;101508.13;1818344;78;25989;-61
2022/04/28 02:15:45;;;;;;;6.97;4.78;;;;;;;12.82;78.46;101518.23;1773741;80;25458;-61
2022/04/28 02:18:29;;;;;;;9.30;4.83;;;;;;;12.85;78.83;101515.28;1700018;84;28461;-61
2022/04/28 02:20:56;;;;;;;7.33;5.03;;;;;;;12.78;79.47;101522.20;1737026;81;26001;-61
2022/04/28 02:23:23;;;;;;;7.87;5.62;;;;;;;12.68;79.03;101528.39;1756580;81;25798;-62
2022/04/28 02:25:50;;;;;;;6.97;4.80;;;;;;;12.68;78.70;101541.05;1756953;81;26772;-61
2022/04/28 02:28:18;;;;;;;7.10;5.00;;;;;;;12.73;78.71;101539.31;1756596;81;25667;-62
2022/04/28 02:30:45;;;;;;;6.47;4.78;;;;;;;12.76;78.60;101534.50;1756596;81;28656;-62
2022/04/28 02:33:13;;;;;;;8.18;4.55;;;;;;;12.76;78.27;101525.53;1756712;81;25820;-61
2022/04/28 02:35:42;;;;;;;10.03;5.45;;;;;;;12.75;78.68;101532.78;1756249;81;25740;-62
2022/04/28 02:38:09;;;;;;;6.72;4.97;;;;;;;12.76;78.32;101534.50;1756645;80;25810;-62
2022/04/28 02:40:36;;;;;;;7.37;4.80;;;;;;;12.82;78.31;101538.48;1757054;81;26148;-62
2022/04/28 02:43:05;;;;;;;7.75;5.08;;;;;;;12.86;78.38;101538.60;1756718;81;27541;-62
2022/04/28 02:45:32;;;;;;;11.30;4.83;;;;;;;12.86;78.17;101551.26;1756652;81;25751;-61
2022/04/28 02:47:59;;;;;;;6.67;4.70;;;;;;;12.87;78.14;101554.30;1756633;81;25771;-62
2022/04/28 02:50:28;;;;;;;10.13;4.58;;;;;;;12.92;78.61;101554.77;1765010;81;25766;-61
2022/04/28 02:52:55;;;;;;;11.08;4.97;;;;;;;12.88;78.22;101558.23;1769479;81;25714;-61
2022/04/28 02:55:23;;;;;;;6.65;5.10;;;;;;;12.90;78.13;101558.09;1769465;81;28462;-61
2022/04/28 02:57:49;;;;;;;8.80;4.45;;;;;;;12.94;78.26;101555.50;1769193;81;25883;-62
2022/04/28 03:00:16;;;;;;;6.90;5.00;;;;;;;12.89;78.29;101559.08;1769522;81;25742;-62
2022/04/28 03:02:44;;;;;;;7.35;4.90;;;;;;;12.83;78.28;101563.16;1767896;81;25771;-62
2022/04/28 03:05:11;;;;;;;8.25;4.33;;;;;;;12.83;78.29;101560.45;1769128;81;25749;-61
2022/04/28 03:10:56;;;;;;;8.03;5.20;;;;;;;12.96;78.63;101558.42;1769537;81;25786;-61
2022/04/28 03:13:23;;;;;;;16.12;5.75;;;;;;;13.06;78.76;101563.88;1769411;81;25731;-62
2022/04/28 03:15:52;;;;;;;7.22;5.12;;;;;;;13.12;78.71;101565.19;1769237;81;25803;-63
2022/04/28 03:18:20;;;;;;;8.33;5.45;;;;;;;13.10;78.30;101563.98;1769170;81;25643;-61
2022/04/28 03:20:48;;;;;;;14.15;6.37;;;;;;;13.08;77.99;101568.66;1790671;79;27466;-62
2022/04/28 03:23:15;;;;;;;10.65;5.67;;;;;;;13.12;78.14;101563.36;1803146;79;25683;-62
2022/04/28 03:25:43;;;;;;;5.95;5.00;;;;;;;13.18;78.13;101567.34;1803004;79;25480;-62
2022/04/28 03:28:10;;;;;;;6.28;5.00;;;;;;;13.23;77.98;101579.11;1803151;79;26439;-62
2022/04/28 03:30:37;;;;;;;5.28;4.33;;;;;;;13.21;77.41;101567.09;1803296;79;25753;-62
2022/04/28 03:33:06;;;;;;;9.45;5.08;;;;;;;13.19;77.79;101571.77;1781899;79;27465;-62
2022/04/28 03:35:33;;;;;;;10.28;5.00;;;;;;;13.12;77.89;101579.57;1771096;79;25842;-62
2022/04/28 03:38:01;;;;;;;8.78;5.12;;;;;;;13.06;77.99;101587.34;1771372;81;25794;-62
2022/04/28 03:40:31;;;;;;;7.22;4.80;;;;;;;13.06;77.95;101585.48;1771112;81;25758;-62
2022/04/28 03:42:58;;;;;;;7.95;4.83;;;;;;;13.12;77.97;101592.20;1771377;81;25784;-62
2022/04/28 03:45:26;;;;;;;6.83;5.08;;;;;;;13.18;77.99;101594.36;1771291;81;27601;-62
2022/04/28 03:47:53;;;;;;;5.92;4.78;;;;;;;13.22;78.03;101588.23;1771108;81;25666;-62
2022/04/28 03:50:21;;;;;;;15.48;10.75;;;;;;;13.24;77.69;101592.50;1771136;81;25837;-62
2022/04/28 03:52:49;;;;;;;8.20;5.20;;;;;;;13.24;77.39;101582.17;1771131;80;25937;-62
2022/04/28 03:55:16;;;;;;;9.58;5.30;;;;;;;13.18;77.84;101578.66;1770864;80;25678;-62
2022/04/28 03:57:43;;;;;;;6.42;4.75;;;;;;;13.15;77.58;101578.44;1771286;81;27633;-62
2022/04/28 04:00:12;;;;;;;10.72;5.28;;;;;;;13.20;77.78;101587.50;1771506;81;25655;-62
2022/04/28 04:02:47;;;;;;;8.63;5.60;;;;;;;13.28;77.93;101598.49;1772739;79;25493;-62
2022/04/28 04:05:15;;;;;;;9.80;5.15;;;;;;;13.36;78.21;101598.67;1803000;79;25714;-62
2022/04/28 04:07:43;;;;;;;10.70;4.80;;;;;;;13.44;78.23;101598.89;1803231;79;25808;-62
2022/04/28 04:10:30;;;;;;;9.30;6.00;;;;;;;13.53;78.06;101608.53;1803181;79;27486;-62
2022/04/28 04:12:59;;;;;;;6.25;4.72;;;;;;;13.59;78.07;101602.57;1802891;79;25985;-62
2022/04/28 04:15:29;;;;;;;8.25;5.75;;;;;;;13.65;77.81;101611.52;1802956;79;25698;-62
2022/04/28 04:18:01;;;;;;;6.47;5.15;;;;;;;13.69;77.62;101609.39;1802579;79;26510;-62
2022/04/28 04:20:30;;;;;;;12.23;5.20;;;;;;;13.75;77.67;101616.95;1800835;79;25703;-62
2022/04/28 04:22:59;;;;;;;7.50;4.75;;;;;;;13.78;77.50;101610.77;1803185;79;27499;-62
2022/04/28 04:25:26;;;;;;;7.30;4.65;;;;;;;13.81;77.12;101616.39;1803358;79;25702;-62
2022/04/28 04:27:54;;;;;;;7.00;5.22;;;;;;;13.82;77.07;101618.11;1802870;79;26282;-61
2022/04/28 04:33:27;;;;;;;8.25;6.20;;;;;;;13.79;76.54;101606.23;1766390;81;25629;-61
2022/04/28 04:35:54;;;;;;;9.58;8.53;;;;;;;13.82;76.64;101607.80;1770890;81;27551;-61
2022/04/28 04:38:21;;;;;;;9.55;7.92;;;;;;;13.85;76.78;101605.67;1770955;80;25923;-61
2022/04/28 04:40:48;;;;;;;13.53;7.45;;;;;;;13.87;76.47;101609.58;1771190;81;25459;-61
2022/04/28 04:43:15;;;;;;;10.58;7.83;;;;;;;13.87;76.40;101604.17;1771135;81;26574;-61
2022/04/28 04:45:43;;;;;;;9.75;6.70;;;;;;;13.87;76.21;101602.81;1771105;80;25446;-62
2022/04/28 04:48:13;;;;;;;9.95;7.05;;;;;;;13.86;76.08;101606.52;1768105;80;27470;-62
2022/04/28 04:50:41;;;;;;;8.10;6.12;;;;;;;13.83;75.80;101609.00;1770964;81;25737;-63
2022/04/28 04:53:10;;;;;;;8.70;5.28;;;;;;;13.81;75.87;101607.44;1770253;81;25825;-63
2022/04/28 04:55:38;;;;;;;7.20;5.33;;;;;;;13.82;75.81;101610.50;1771630;81;25951;-63
2022/04/28 04:58:07;;;;;;;6.95;5.08;;;;;;;13.81;75.70;101614.20;1771691;81;25560;-63
2022/04/28 05:00:34;;;;;;;9.48;5.35;;;;;;;13.77;75.70;101609.56;1771385;81;27442;-63
2022/04/28 05:03:19;;;;;;;8.38;4.75;;;;;;;13.75;75.46;101610.19;1762554;81;25755;-64
2022/04/28 05:05:48;;;;;;;7.08;4.78;;;;;;;13.69;75.57;101605.33;1713658;82;25771;-64
2022/04/28 05:08:17;;;;;;;6.97;4.75;;;;;;;13.68;75.96;101609.03;1739797;82;25888;-63
2022/04/28 05:10:55;;;;;;;4.40;3.83;;;;;;;13.68;75.88;101604.45;1738141;82;25715;-63
2022/04/28 05:13:22;;;;;;;6.80;4.70;;;;;;;13.67;75.90;101604.09;1740304;82;28342;-63
2022/04/28 05:15:51;;;;;;;4.50;4.05;;;;;;;13.68;75.81;101609.87;1739843;82;25819;-63
2022/04/28 05:18:20;;;;;;;4.87;4.12;;;;;;;13.66;75.91;101602.89;1739704;82;25771;-63
2022/04/28 05:20:50;;;;;;;7.40;3.87;;;;;;;13.68;76.35;101599.05;1738548;81;25922;-63
2022/04/28 05:23:36;;;;;;;10.28;3.77;;;;;;;13.63;75.86;101597.77;1740214;82;25835;-63
2022/04/28 05:26:21;;;;;;;5.72;3.70;;;;;;;13.61;76.03;101600.59;1740139;82;27610;-63
2022/04/28 05:29:07;;;;;;;6.22;4.53;;;;;;;13.63;76.12;101599.97;1740128;81;25924;-62
2022/04/28 05:31:52;;;;;;;7.67;4.00;;;;;;;13.76;76.67;101605.14;1742708;81;25486;-62
2022/04/28 05:34:29;;;;;;;7.35;4.12;;;;;;;13.78;76.26;101601.81;1646254;87;25796;-62
2022/04/28 05:37:02;;;;;;;5.08;3.67;;;;;;;13.76;76.42;101602.44;1761598;80;25786;-62
2022/04/28 05:39:29;;;;;;;8.10;3.75;;;;;;;13.73;76.07;101604.92;1746704;81;27668;-63
2022/04/28 05:41:56;;;;;;;7.20;3.90;;;;;;;13.74;75.83;101615.23;1737414;82;25699;-63
2022/04/28 05:47:10;;;;;;;8.03;4.12;;;;;;;13.83;75.70;101614.92;1738667;81;25815;-62
2022/04/28 05:49:38;;;;;;;6.12;4.87;;;;;;;13.91;75.88;101615.94;1712273;82;25990;-62
2022/04/28 05:52:07;;;;;;;21.62;9.65;;;;;;;14.03;75.80;101627.50;1707985;82;26914;-62
2022/04/28 05:54:36;;;;;;;8.60;5.17;;;;;;;14.11;75.59;101633.58;1737059;82;26006;-62
2022/04/28 05:57:04;;;;;;;9.63;4.70;;;;;;;14.20;75.44;101637.32;1737330;82;26487;-62
2022/04/28 05:59:32;;;;;;;6.70;4.50;;;;;;;14.27;75.06;101634.89;1737503;82;25750;-62
2022/04/28 06:02:16;;;;;;;4.35;3.67;;;;;;;14.29;74.48;101636.48;1652302;86;25979;-62
2022/04/28 06:04:43;;;;;;;10.10;4.45;;;;;;;14.30;74.41;101646.28;1734212;81;28901;-62
2022/04/28 06:07:11;;;;;;;9.65;4.30;;;;;;;14.26;73.95;101643.52;1765646;79;25941;-63
2022/04/28 06:09:39;;;;;;;6.95;4.33;;;;;;;14.27;73.80;101643.01;1765376;79;25532;-63
2022/04/28 06:12:09;;;;;;;5.35;4.35;;;;;;;14.22;73.25;101641.59;1765846;81;26617;-63
2022/04/28 06:14:39;;;;;;;7.17;4.75;;;;;;;14.18;73.23;101637.95;1752495;81;26064;-63
2022/04/28 06:17:13;;;;;;;9.85;5.00;;;;;;;14.16;73.11;101643.98;1713748;81;27654;-63
2022/04/28 06:19:40;;;;;;;7.50;5.00;;;;;;;14.13;72.99;101648.31;1765793;81;25481;-63
2022/04/28 06:22:07;;;;;;;11.90;6.20;;;;;;;14.11;73.11;101660.64;1789279;79;25493;-63
2022/04/28 06:24:39;;;;;;;6.80;5.33;;;;;;;14.12;72.90;101660.16;1797021;79;25822;-63
2022/04/28 06:27:07;;;;;;;8.68;6.58;;;;;;;14.09;72.65;101666.67;1797376;79;25706;-63
2022/04/28 06:29:34;;;;;;;11.68;6.15;;;;;;;14.05;72.63;101673.37;1797472;79;27469;-64
2022/04/28 06:32:04;;;;;;;8.85;5.55;;;;;;;14.01;72.68;101670.09;1791095;79;25723;-64
2022/04/28 06:34:50;;;;;;;13.05;5.70;;;;;;;14.00;72.74;101679.67;1767609;81;25825;-62
2022/04/28 06:37:19;;;;;;;18.25;5.83;;;;;;;13.98;72.80;101679.81;1767747;81;25766;-63
2022/04/28 06:39:47;;;;;;;18.15;6.15;;;;;;;14.00;73.11;101690.02;1766729;81;25931;-62
2022/04/28 06:42:15;;;;;;;9.53;7.03;;;;;;;13.97;72.92;101684.86;1767801;81;27478;-62
2022/04/28 06:44:53;;;;;;;14.73;6.97;;;;;;;13.96;73.06;101681.80;1676922;85;26114;-63
2022/04/28 06:47:27;;;;;;;8.40;5.97;;;;;;;14.01;73.81;101675.50;1763203;81;25569;-62
2022/04/28 06:50:09;;;;;;;10.80;6.92;;;;;;;14.01;73.60;101667.86;1715906;79;26430;-62
2022/04/28 06:52:55;;;;;;;12.30;7.35;;;;;;;13.97;73.56;101661.87;1799638;79;25770;-63
2022/04/28 06:55:26;;;;;;;14.00;7.00;;;;;;;13.99;74.15;101653.13;1798589;79;27530;-62
2022/04/28 06:57:53;;;;;;;9.20;5.90;;;;;;;14.00;74.61;101649.44;1799558;79;25678;-62
2022/04/28 07:00:30;;;;;;;10.43;6.60;;;;;;;14.04;74.93;101650.85;1797459;79;25737;-62
2022/04/28 07:02:56;;;;;;;12.35;7.33;;;;;;;14.07;74.97;101660.06;1768649;79;25827;-63
2022/04/28 07:05:25;;;;;;;7.83;5.83;;;;;;;14.20;75.28;101666.58;1799766;79;25420;-63
2022/04/28 07:07:52;;;;;;;7.75;5.83;;;;;;;14.33;75.17;101666.32;1799740;79;27459;-63
2022/04/28 07:10:21;;;;;;;6.95;5.08;;;;;;;14.48;75.29;101668.14;1798880;79;25640;-63
2022/04/28 07:12:48;;;;;;;8.05;5.87;;;;;;;14.62;75.10;101677.70;1799837;79;25723;-63
2022/04/28 07:15:27;;;;;;;7.80;5.67;;;;;;;14.76;75.08;101683.72;1799566;79;25795;-63
2022/04/28 07:18:12;;;;;;;8.15;5.47;;;;;;;14.89;74.70;101684.80;1799570;79;25714;-63
2022/04/28 07:20:40;;;;;;;10.95;5.62;;;;;;;14.98;74.55;101675.33;1799559;79;27595;-63
2022/04/28 07:23:07;;;;;;;9.80;5.20;;;;;;;15.08;74.18;101671.77;1768384;79;25719;-62
2022/04/28 07:25:34;;;;;;;8.13;4.80;;;;;;;15.13;73.49;101671.69;1797626;79;25714;-62
2022/04/28 07:28:02;;;;;;;8.23;5.55;;;;;;;15.19;73.69;101677.04;1797440;79;25971;-62
2022/04/28 07:30:36;;;;;;;7.35;5.25;;;;;;;15.30;73.91;101678.21;1792926;79;26162;-63
2022/04/28 07:33:04;;;;;;;8.80;5.45;;;;;;;15.39;72.84;101673.79;1777472;79;27359;-62
2022/04/28 07:35:34;;;;;;;9.28;5.37;;;;;;;15.40;72.98;101684.12;1765416;81;25482;-62
2022/04/28 07:38:19;;;;;;;7.80;5.78;;;;;;;15.43;72.88;101683.33;1765623;81;25793;-63
2022/04/28 07:40:53;;;;;;;7.12;5.03;;;;;;;15.48;72.43;101668.84;1763422;81;25784;-62
2022/04/28 07:43:21;;;;;;;9.80;5.20;;;;;;;15.46;72.09;101677.62;1765567;81;26506;-62
2022/04/28 07:45:49;;;;;;;7.90;5.05;;;;;;;15.54;72.15;101671.47;1737391;81;28313;-62
2022/04/28 07:48:18;;;;;;;6.00;4.67;;;;;;;15.57;71.71;101672.52;1765601;81;25869;-62
2022/04/28 07:50:46;;;;;;;9.28;4.85;;;;;;;15.57;71.20;101676.58;1790175;79;25753;-63
2022/04/28 07:53:18;;;;;;;5.58;4.75;;;;;;;15.58;71.18;101678.81;1797202;79;26705;-63
2022/04/28 07:56:10;;;;;;;7.62;5.75;;;;;;;15.56;70.39;101675.38;1797861;79;25824;-63
2022/04/28 07:58:15;;;;;;;9.50;5.78;;;;;;;15.48;69.95;101673.39;1793970;79;27457;-62
2022/04/28 08:00:49;;;;;;;6.83;5.80;;;;;;;15.41;70.26;101673.63;1793962;79;26001;-63
2022/04/28 08:03:18;;;;;;;8.63;5.72;;;;;;;15.34;70.41;101679.64;1789144;79;25480;-63
2022/04/28 08:05:47;;;;;;;8.90;5.60;;;;;;;15.28;70.46;101671.23;1765234;79;25937;-63
2022/04/28 08:08:14;;;;;;;7.97;5.22;;;;;;;15.12;70.57;101677.23;1765938;80;27238;-63
2022/04/28 08:10:41;;;;;;;8.48;5.05;;;;;;;15.02;71.03;101671.83;1765890;79;27481;-63
2022/04/28 08:13:08;;;;;;;7.92;4.50;;;;;;;14.94;71.56;101678.47;1765900;79;26160;-62
2022/04/28 08:15:36;;;;;;;5.33;4.37;;;;;;;14.81;71.56;101676.88;1762143;81;25822;-62
2022/04/28 08:18:04;;;;;;;8.10;4.03;;;;;;;14.74;71.78;101683.03;1766124;79;26701;-62
2022/04/28 08:20:31;;;;;;;7.45;4.65;;;;;;;14.71;72.19;101683.66;1765784;80;25709;-62
2022/04/28 08:22:58;;;;;;;11.45;4.12;;;;;;;14.69;72.09;101680.75;1765608;79;27406;-63
2022/04/28 08:25:26;;;;;;;4.80;3.87;;;;;;;14.74;72.34;101684.39;1765653;79;25774;-63
2022/04/28 08:27:53;;;;;;;9.13;4.65;;;;;;;14.73;72.71;101683.52;1765808;79;25742;-62
2022/04/28 08:30:20;;;;;;;9.40;4.75;;;;;;;14.68;72.67;101688.00;1766160;80;25913;-62
2022/04/28 08:32:48;;;;;;;12.80;5.03;;;;;;;14.66;72.81;101689.98;1765768;80;25738;-63
2022/04/28 08:35:15;;;;;;;8.53;4.85;;;;;;;14.72;73.16;101689.92;1765797;81;29587;-63
2022/04/28 08:37:42;;;;;;;5.72;4.75;;;;;;;14.66;73.07;101683.69;1765919;81;25764;-62
2022/04/28 08:40:11;;;;;;;6.62;4.20;;;;;;;14.67;73.27;101680.86;1765737;81;25773;-62
2022/04/28 08:42:40;;;;;;;5.70;3.98;;;;;;;14.76;73.65;101682.37;1765759;81;26641;-63
2022/04/28 08:45:09;;;;;;;8.85;4.40;;;;;;;14.71;73.56;101684.14;1763251;81;25735;-63
2022/04/28 08:47:39;;;;;;;6.00;4.60;;;;;;;14.68;73.32;101688.00;1765825;81;27446;-63
2022/04/28 08:50:25;;;;;;;5.83;3.83;;;;;;;14.60;73.24;101692.39;1765685;80;25802;-63
2022/04/28 08:52:58;;;;;;;5.85;4.20;;;;;;;14.57;73.36;101686.73;1766359;79;25750;-62
2022/04/28 08:55:27;;;;;;;8.15;4.45;;;;;;;14.59;73.63;101682.55;1763164;81;25836;-63
2022/04/28 08:57:54;;;;;;;7.20;4.03;;;;;;;14.52;73.31;101683.59;1765659;81;25798;-63
2022/04/28 09:00:21;;;;;;;6.65;4.22;;;;;;;14.50;73.54;101684.23;1766042;81;27603;-62
2022/04/28 09:02:49;;;;;;;7.20;3.95;;;;;;;14.49;73.82;101679.81;1763535;79;25916;-63
2022/04/28 09:05:21;;;;;;;7.87;4.30;;;;;;;14.40;74.09;101676.94;1767456;79;25826;-63
2022/04/28 09:08:06;;;;;;;6.78;4.80;;;;;;;14.34;74.54;101686.14;1747057;79;25859;-63
2022/04/28 09:10:43;;;;;;;9.15;4.92;;;;;;;14.28;74.37;101687.55;1696881;84;25823;-62
2022/04/28 09:16:15;;;;;;;8.90;5.05;;;;;;;14.30;74.60;101686.89;1797361;79;25426;-62
2022/04/28 09:18:42;;;;;;;7.67;4.65;;;;;;;14.33;74.81;101678.50;1797520;79;25663;-62
2022/04/28 09:21:10;;;;;;;12.47;5.12;;;;;;;14.31;74.60;101669.66;1797527;79;25880;-62
2022/04/28 09:23:39;;;;;;;9.70;5.12;;;;;;;14.28;74.34;101683.97;1761475;80;25786;-62
2022/04/28 09:26:08;;;;;;;6.97;4.30;;;;;;;14.25;74.74;101687.81;1787585;80;27596;-62
2022/04/28 09:28:36;;;;;;;7.70;4.60;;;;;;;14.24;74.79;101683.39;1787231;80;25732;-62
2022/04/28 09:31:03;;;;;;;9.68;4.15;;;;;;;14.15;74.93;101685.09;1787605;80;25501;-62
2022/04/28 09:33:39;;;;;;;5.10;4.00;;;;;;;14.05;75.12;101682.84;1796304;79;25733;-62
2022/04/28 09:36:18;;;;;;;9.75;4.28;;;;;;;14.02;74.96;101688.03;1797305;79;25783;-62
2022/04/28 09:38:59;;;;;;;6.67;4.12;;;;;;;13.98;74.88;101696.56;1797460;79;28697;-62
2022/04/28 09:44:29;;;;;;;7.35;4.50;;;;;;;13.91;74.76;101694.88;1795442;79;25474;-62
2022/04/28 09:46:57;;;;;;;8.65;4.35;;;;;;;13.84;74.86;101699.97;1796506;79;25957;-62
2022/04/28 09:49:28;;;;;;;9.63;4.67;;;;;;;13.82;74.91;101703.80;1797603;79;25259;-62
2022/04/28 09:51:59;;;;;;;11.43;6.40;;;;;;;13.80;74.95;101697.19;1759382;79;27536;-62
2022/04/28 09:54:32;;;;;;;17.02;8.35;;;;;;;13.82;74.84;101696.53;1796200;79;25683;-62
2022/04/28 09:57:04;;;;;;;12.33;7.55;;;;;;;13.84;74.99;101700.48;1797363;79;25717;-63
2022/04/28 09:59:33;;;;;;;10.15;5.92;;;;;;;13.87;74.96;101702.89;1797654;79;25751;-62
2022/04/28 10:02:01;;;;;;;11.28;6.70;;;;;;;13.83;75.09;101706.88;1797172;79;26114;-62
2022/04/28 10:04:29;;;;;;;10.78;5.25;;;;;;;13.83;75.12;101711.77;1773872;79;27442;-62
2022/04/28 10:07:09;;;;;;;7.30;4.70;;;;;;;13.83;75.16;101717.19;1765690;80;26431;-62
2022/04/28 10:09:39;;;;;;;6.25;3.80;;;;;;;13.83;75.21;101714.98;1766115;80;25725;-62
2022/04/28 10:12:09;;;;;;;10.40;5.22;;;;;;;13.87;75.46;101721.83;1765697;80;27015;-62
2022/04/28 10:14:56;;;;;;;8.28;6.10;;;;;;;13.83;75.68;101716.34;1765795;81;25772;-61
2022/04/28 10:17:56;;;;;;;10.58;8.05;;;;;;;13.85;75.60;101718.42;1765819;80;27470;-62
2022/04/28 10:20:35;;;;;;;9.45;5.22;;;;;;;13.93;75.83;101723.50;1766215;80;25693;-62
2022/04/28 10:23:08;;;;;;;9.83;4.45;;;;;;;14.05;75.64;101728.32;1774336;79;25829;-61
2022/04/28 10:34:40;;;;;;;4.87;3.12;;;;;;;14.12;74.70;101739.47;1762344;81;25772;-61
2022/04/28 10:37:11;;;;;;;9.23;4.22;;;;;;;13.98;74.29;101743.89;1783379;80;25828;-62
2022/04/28 10:39:45;;;;;;;6.95;4.45;;;;;;;13.99;74.44;101742.88;1749209;81;25941;-62
2022/04/28 10:42:29;;;;;;;6.15;3.83;;;;;;;14.04;74.37;101746.05;1762469;81;25957;-63
2022/04/28 10:44:59;;;;;;;3.95;2.95;;;;;;;14.01;73.64;101739.55;1762556;81;27565;-63
2022/04/28 10:47:36;;;;;;;7.83;3.52;;;;;;;13.95;73.12;101741.45;1762050;81;25775;-63
2022/04/28 10:50:22;;;;;;;5.70;3.65;;;;;;;13.83;73.08;101751.50;1762313;80;25766;-63
2022/04/28 10:53:02;;;;;;;5.65;3.90;;;;;;;13.77;73.00;101751.53;1761711;81;26743;-61
2022/04/28 10:55:44;;;;;;;8.98;3.90;;;;;;;13.72;73.33;101747.88;1806190;79;25326;-61
2022/04/28 10:58:27;;;;;;;4.92;3.70;;;;;;;13.68;73.14;101750.98;1811721;79;27461;-61
2022/04/28 11:01:00;;;;;;;11.48;4.25;;;;;;;13.67;73.37;101748.75;1813864;78;25723;-61
2022/04/28 11:03:49;;;;;;;7.90;4.25;;;;;;;13.69;73.58;101751.34;1807136;78;25713;-61
2022/04/28 11:06:24;;;;;;;7.30;4.20;;;;;;;13.67;73.69;101747.40;1784449;80;25798;-61
2022/04/28 11:08:55;;;;;;;11.73;4.70;;;;;;;13.63;73.68;101753.23;1760716;81;25732;-62
2022/04/28 11:11:30;;;;;;;6.25;4.35;;;;;;;13.59;73.99;101749.44;1792979;80;28223;-62
2022/04/28 11:13:59;;;;;;;7.22;4.40;;;;;;;13.53;73.96;101752.67;1791092;79;25971;-62
2022/04/28 11:16:27;;;;;;;6.83;3.83;;;;;;;13.49;74.03;101749.02;1813413;79;25977;-62
2022/04/28 11:18:54;;;;;;;7.75;3.70;;;;;;;13.45;74.25;101751.09;1805233;79;25799;-62
2022/04/28 11:21:23;;;;;;;8.83;4.65;;;;;;;13.45;74.54;101749.27;1782021;80;25790;-62
2022/04/28 11:23:52;;;;;;;8.33;4.30;;;;;;;13.42;74.83;101750.02;1751810;80;27450;-62
2022/04/28 11:26:28;;;;;;;8.40;4.60;;;;;;;13.37;75.09;101744.98;1781264;80;25498;-62
2022/04/28 11:29:07;;;;;;;7.95;4.35;;;;;;;13.34;75.08;101753.33;1779757;80;25815;-62
2022/04/28 11:31:36;;;;;;;7.90;4.22;;;;;;;13.40;75.52;101751.99;1782185;79;25867;-62
2022/04/28 11:34:09;;;;;;;10.68;4.70;;;;;;;13.45;75.31;101742.50;1800837;78;25868;-62
2022/04/28 11:36:33;;;;;;;7.00;4.08;;;;;;;13.49;75.57;101747.16;1799838;79;27652;-62
2022/04/28 11:39:03;;;;;;;10.28;5.50;;;;;;;13.53;75.41;101745.04;1800346;78;25700;-62
2022/04/28 11:41:34;;;;;;;7.45;4.25;;;;;;;13.60;75.71;101744.39;1800675;78;25579;-62
2022/04/28 11:44:07;;;;;;;7.30;4.17;;;;;;;13.63;75.60;101742.42;1800564;78;25785;-62
2022/04/28 11:46:49;;;;;;;7.10;4.53;;;;;;;13.64;75.89;101743.62;1800524;79;25660;-62
2022/04/28 11:49:18;;;;;;;8.58;5.25;;;;;;;13.63;75.65;101739.20;1798093;79;28215;-63
2022/04/28 11:51:46;;;;;;;9.58;5.35;;;;;;;13.61;75.88;101742.05;1779873;80;25794;-62
2022/04/28 11:54:27;;;;;;;12.70;5.50;;;;;;;13.61;75.75;101731.72;1780363;80;25809;-62
2022/04/28 11:57:12;;;;;;;11.25;5.05;;;;;;;13.60;75.89;101728.65;1779721;80;25885;-62
2022/04/28 11:59:41;;;;;;;6.30;4.55;;;;;;;13.61;76.00;101727.19;1780166;80;25194;-62
2022/04/28 12:02:35;;;;;;;11.18;3.92;;;;;;;13.63;76.00;101727.55;1780253;80;28302;-62
2022/04/28 12:05:19;;;;;;;7.58;3.90;;;;;;;13.64;76.13;101728.76;1793255;80;25790;-62
2022/04/28 12:07:52;;;;;;;;;;;;;;;13.67;76.22;101728.98;1795797;80;25771;-62
2022/04/28 12:16:00;;;;;;;6.90;4.12;;;;;;;13.57;75.97;101736.53;1830247;78;27399;-62